Holt, Missouri
Current Conditions -  °F | °C
As of 9:55 AM on Friday 24 Oct 2014 (Local Time) from KGPH Reporting Station
Haze Haze  
Wind Chill: 13°   Ceiling: 300
Heat Index: 13°   Visibility: 2mi
Dew Point: 13°   Wind: 7mph
Humidity: 100%   Direction: 160°SSE
Pressure: 30.05"   Gusts: NA
Location:  39.45°N, 94.34°W
Report Text: KGPH 241455Z AUTO 16006KT 2SM BR OVC003 13/13 A3005 RMK AO2
Loading
Personal Weather Stations






























Interactive Weather Map
Tropical Storm Tracking
New forecast layout! Learn more

10-Day Weather Forecast

Advertisements
Track Severe Weather on mobile